sensor_id;sensor_type;location;lat;lon;timestamp;pressure;altitude;pressure_sealevel;temperature;humidity
64292;BME280;50628;51.008;13.658;2023-02-18T00:03:46;99925.59;;;8.96;100.00
64292;BME280;50628;51.008;13.658;2023-02-18T00:08:50;99925.16;;;9.02;100.00
64292;BME280;50628;51.008;13.658;2023-02-18T00:13:54;99921.63;;;9.03;100.00
64292;BME280;50628;51.008;13.658;2023-02-18T00:18:57;99919.13;;;9.02;100.00
64292;BME280;50628;51.008;13.658;2023-02-18T00:24:01;99921.16;;;9.09;100.00
64292;BME280;50628;51.008;13.658;2023-02-18T00:29:03;99930.09;;;9.18;100.00
64292;BME280;50628;51.008;13.658;2023-02-18T00:34:05;99928.03;;;9.10;100.00
64292;BME280;50628;51.008;13.658;2023-02-18T00:39:10;99915.09;;;9.22;100.00
64292;BME280;50628;51.008;13.658;2023-02-18T00:44:12;99917.94;;;9.19;100.00
64292;BME280;50628;51.008;13.658;2023-02-18T00:49:15;99923.25;;;9.17;100.00
64292;BME280;50628;51.008;13.658;2023-02-18T00:54:18;99919.97;;;9.26;100.00
64292;BME280;50628;51.008;13.658;2023-02-18T00:59:20;99916.88;;;9.21;100.00
64292;BME280;50628;51.008;13.658;2023-02-18T01:04:22;99913.22;;;9.24;100.00
64292;BME280;50628;51.008;13.658;2023-02-18T01:09:25;99919.69;;;9.18;100.00
64292;BME280;50628;51.008;13.658;2023-02-18T01:14:27;99924.63;;;9.10;100.00
64292;BME280;50628;51.008;13.658;2023-02-18T01:19:29;99926.88;;;9.15;100.00
64292;BME280;50628;51.008;13.658;2023-02-18T01:24:32;99933.47;;;9.07;100.00
64292;BME280;50628;51.008;13.658;2023-02-18T01:29:34;99925.88;;;9.04;100.00
64292;BME280;50628;51.008;13.658;2023-02-18T01:34:36;99922.66;;;9.01;100.00
64292;BME280;50628;51.008;13.658;2023-02-18T01:39:39;99914.59;;;8.93;100.00
64292;BME280;50628;51.008;13.658;2023-02-18T01:44:42;99910.97;;;8.95;100.00
64292;BME280;50628;51.008;13.658;2023-02-18T01:49:49;99915.75;;;8.88;100.00
64292;BME280;50628;51.008;13.658;2023-02-18T01:54:55;99902.25;;;8.83;100.00
64292;BME280;50628;51.008;13.658;2023-02-18T02:00:02;99907.06;;;8.77;100.00
64292;BME280;50628;51.008;13.658;2023-02-18T02:05:16;99905.22;;;8.66;100.00
64292;BME280;50628;51.008;13.658;2023-02-18T02:10:19;99901.81;;;8.65;100.00
64292;BME280;50628;51.008;13.658;2023-02-18T02:15:32;99910.72;;;8.61;100.00
64292;BME280;50628;51.008;13.658;2023-02-18T02:20:55;99927.34;;;8.59;100.00
64292;BME280;50628;51.008;13.658;2023-02-18T02:26:33;99910.63;;;8.63;100.00
64292;BME280;50628;51.008;13.658;2023-02-18T02:32:00;99916.53;;;8.65;100.00
64292;BME280;50628;51.008;13.658;2023-02-18T02:37:13;99913.94;;;8.65;100.00
64292;BME280;50628;51.008;13.658;2023-02-18T02:42:22;99919.97;;;8.65;100.00
64292;BME280;50628;51.008;13.658;2023-02-18T02:47:31;99918.50;;;8.61;100.00
64292;BME280;50628;51.008;13.658;2023-02-18T02:52:46;99927.47;;;8.57;100.00
64292;BME280;50628;51.008;13.658;2023-02-18T02:57:50;99927.25;;;8.48;100.00
64292;BME280;50628;51.008;13.658;2023-02-18T03:08:32;99906.38;;;8.49;100.00
64292;BME280;50628;51.008;13.658;2023-02-18T03:13:55;99918.97;;;8.42;100.00
64292;BME280;50628;51.008;13.658;2023-02-18T03:19:07;99925.25;;;8.38;100.00
64292;BME280;50628;51.008;13.658;2023-02-18T03:24:15;99920.06;;;8.38;100.00
64292;BME280;50628;51.008;13.658;2023-02-18T03:29:20;99924.66;;;8.35;100.00
64292;BME280;50628;51.008;13.658;2023-02-18T03:34:27;99912.72;;;8.32;100.00
64292;BME280;50628;51.008;13.658;2023-02-18T03:39:34;99916.13;;;8.33;100.00
64292;BME280;50628;51.008;13.658;2023-02-18T03:44:37;99909.41;;;8.30;100.00
64292;BME280;50628;51.008;13.658;2023-02-18T03:49:39;99902.66;;;8.40;100.00
64292;BME280;50628;51.008;13.658;2023-02-18T03:54:43;99905.78;;;8.45;100.00
64292;BME280;50628;51.008;13.658;2023-02-18T03:59:44;99896.94;;;8.35;100.00
64292;BME280;50628;51.008;13.658;2023-02-18T04:04:46;99907.41;;;8.34;100.00
64292;BME280;50628;51.008;13.658;2023-02-18T04:09:50;99917.91;;;8.32;100.00
64292;BME280;50628;51.008;13.658;2023-02-18T04:14:51;99918.97;;;8.42;100.00
64292;BME280;50628;51.008;13.658;2023-02-18T04:19:53;99918.97;;;8.42;100.00
64292;BME280;50628;51.008;13.658;2023-02-18T04:24:57;99927.03;;;8.38;100.00
64292;BME280;50628;51.008;13.658;2023-02-18T04:30:00;99920.06;;;8.38;100.00
64292;BME280;50628;51.008;13.658;2023-02-18T04:35:01;99912.94;;;8.42;100.00
64292;BME280;50628;51.008;13.658;2023-02-18T04:40:06;99922.47;;;8.41;100.00
64292;BME280;50628;51.008;13.658;2023-02-18T04:45:08;99901.84;;;8.40;100.00
64292;BME280;50628;51.008;13.658;2023-02-18T04:50:10;99901.72;;;8.41;100.00
64292;BME280;50628;51.008;13.658;2023-02-18T04:55:13;99892.47;;;8.37;100.00
64292;BME280;50628;51.008;13.658;2023-02-18T05:00:17;99905.44;;;8.37;100.00
64292;BME280;50628;51.008;13.658;2023-02-18T05:05:19;99912.00;;;8.43;100.00
64292;BME280;50628;51.008;13.658;2023-02-18T05:10:22;99911.41;;;8.39;100.00
64292;BME280;50628;51.008;13.658;2023-02-18T05:15:24;99903.63;;;8.39;100.00
64292;BME280;50628;51.008;13.658;2023-02-18T05:20:26;99901.31;;;8.35;100.00
64292;BME280;50628;51.008;13.658;2023-02-18T05:25:30;99886.88;;;8.31;100.00
64292;BME280;50628;51.008;13.658;2023-02-18T05:30:31;99874.13;;;8.28;100.00
64292;BME280;50628;51.008;13.658;2023-02-18T05:35:33;99880.97;;;8.29;100.00
64292;BME280;50628;51.008;13.658;2023-02-18T05:40:37;99873.94;;;8.18;100.00
64292;BME280;50628;51.008;13.658;2023-02-18T05:45:38;99862.75;;;8.17;100.00
64292;BME280;50628;51.008;13.658;2023-02-18T05:50:40;99865.13;;;8.20;100.00
64292;BME280;50628;51.008;13.658;2023-02-18T05:55:44;99857.34;;;8.20;100.00
64292;BME280;50628;51.008;13.658;2023-02-18T06:00:46;99859.81;;;8.35;100.00
64292;BME280;50628;51.008;13.658;2023-02-18T06:05:48;99861.38;;;8.37;100.00
64292;BME280;50628;51.008;13.658;2023-02-18T06:10:51;99861.91;;;8.42;100.00
64292;BME280;50628;51.008;13.658;2023-02-18T06:15:54;99865.41;;;8.29;100.00
64292;BME280;50628;51.008;13.658;2023-02-18T06:20:56;99876.53;;;8.18;100.00
64292;BME280;50628;51.008;13.658;2023-02-18T06:25:59;99872.16;;;8.06;100.00
64292;BME280;50628;51.008;13.658;2023-02-18T06:31:01;99864.09;;;7.97;100.00
64292;BME280;50628;51.008;13.658;2023-02-18T06:36:05;99878.50;;;7.89;100.00
64292;BME280;50628;51.008;13.658;2023-02-18T06:41:09;99882.66;;;7.91;100.00
64292;BME280;50628;51.008;13.658;2023-02-18T06:46:11;99879.03;;;7.94;100.00
64292;BME280;50628;51.008;13.658;2023-02-18T06:51:13;99870.84;;;8.00;100.00
64292;BME280;50628;51.008;13.658;2023-02-18T06:56:17;99858.09;;;7.97;100.00
64292;BME280;50628;51.008;13.658;2023-02-18T07:01:18;99863.78;;;8.02;100.00
64292;BME280;50628;51.008;13.658;2023-02-18T07:06:20;99852.47;;;8.03;100.00
64292;BME280;50628;51.008;13.658;2023-02-18T07:11:24;99850.41;;;8.08;100.00
64292;BME280;50628;51.008;13.658;2023-02-18T07:16:25;99863.13;;;8.11;100.00
64292;BME280;50628;51.008;13.658;2023-02-18T07:21:27;99840.34;;;8.03;100.00
64292;BME280;50628;51.008;13.658;2023-02-18T07:26:30;99848.22;;;8.02;100.00
64292;BME280;50628;51.008;13.658;2023-02-18T07:31:32;99841.88;;;8.06;100.00
64292;BME280;50628;51.008;13.658;2023-02-18T07:36:34;99815.88;;;8.08;100.00
64292;BME280;50628;51.008;13.658;2023-02-18T07:41:37;99827.81;;;7.97;100.00
64292;BME280;50628;51.008;13.658;2023-02-18T07:46:48;99794.19;;;8.09;100.00
64292;BME280;50628;51.008;13.658;2023-02-18T07:51:50;99786.81;;;8.15;100.00
64292;BME280;50628;51.008;13.658;2023-02-18T07:56:53;99783.91;;;8.20;100.00
64292;BME280;50628;51.008;13.658;2023-02-18T08:01:55;99781.53;;;8.17;100.00
64292;BME280;50628;51.008;13.658;2023-02-18T08:06:57;99789.19;;;8.18;100.00
64292;BME280;50628;51.008;13.658;2023-02-18T08:12:00;99764.13;;;8.19;100.00
64292;BME280;50628;51.008;13.658;2023-02-18T08:17:02;99755.91;;;8.25;100.00
64292;BME280;50628;51.008;13.658;2023-02-18T08:22:04;99752.03;;;8.31;100.00
64292;BME280;50628;51.008;13.658;2023-02-18T08:27:07;99747.78;;;8.30;100.00
64292;BME280;50628;51.008;13.658;2023-02-18T08:32:09;99733.50;;;8.24;100.00
64292;BME280;50628;51.008;13.658;2023-02-18T08:37:11;99728.28;;;8.37;100.00
64292;BME280;50628;51.008;13.658;2023-02-18T08:42:14;99713.00;;;8.45;100.00
64292;BME280;50628;51.008;13.658;2023-02-18T08:47:16;99710.75;;;8.40;100.00
64292;BME280;50628;51.008;13.658;2023-02-18T08:52:18;99706.78;;;8.48;100.00
64292;BME280;50628;51.008;13.658;2023-02-18T08:57:21;99688.94;;;8.67;100.00
64292;BME280;50628;51.008;13.658;2023-02-18T09:02:23;99692.56;;;9.00;100.00
64292;BME280;50628;51.008;13.658;2023-02-18T09:07:24;99674.53;;;9.54;100.00
64292;BME280;50628;51.008;13.658;2023-02-18T09:12:28;99650.50;;;9.96;100.00
64292;BME280;50628;51.008;13.658;2023-02-18T09:17:30;99622.84;;;10.27;100.00
64292;BME280;50628;51.008;13.658;2023-02-18T09:22:32;99627.28;;;10.48;100.00
64292;BME280;50628;51.008;13.658;2023-02-18T09:27:36;99624.84;;;10.67;100.00
64292;BME280;50628;51.008;13.658;2023-02-18T09:32:38;99593.50;;;10.78;100.00
64292;BME280;50628;51.008;13.658;2023-02-18T09:37:39;99601.53;;;10.87;100.00
64292;BME280;50628;51.008;13.658;2023-02-18T09:42:43;99580.16;;;10.93;100.00
64292;BME280;50628;51.008;13.658;2023-02-18T09:47:45;99574.09;;;10.82;100.00
64292;BME280;50628;51.008;13.658;2023-02-18T09:52:47;99577.06;;;10.78;100.00
64292;BME280;50628;51.008;13.658;2023-02-18T09:57:52;99564.69;;;10.70;100.00
64292;BME280;50628;51.008;13.658;2023-02-18T10:02:56;99567.56;;;10.67;100.00
64292;BME280;50628;51.008;13.658;2023-02-18T10:08:02;99569.47;;;10.65;100.00
64292;BME280;50628;51.008;13.658;2023-02-18T10:13:10;99551.63;;;10.60;100.00
64292;BME280;50628;51.008;13.658;2023-02-18T10:18:21;99562.75;;;10.63;100.00
64292;BME280;50628;51.008;13.658;2023-02-18T10:23:26;99548.03;;;10.52;100.00
64292;BME280;50628;51.008;13.658;2023-02-18T10:28:34;99528.72;;;10.54;100.00
64292;BME280;50628;51.008;13.658;2023-02-18T10:33:41;99530.13;;;10.58;100.00
64292;BME280;50628;51.008;13.658;2023-02-18T10:39:00;99521.03;;;10.53;100.00
64292;BME280;50628;51.008;13.658;2023-02-18T10:44:11;99518.53;;;10.42;100.00
64292;BME280;50628;51.008;13.658;2023-02-18T10:49:32;99509.13;;;10.50;100.00
64292;BME280;50628;51.008;13.658;2023-02-18T10:54:49;99478.75;;;10.60;100.00
64292;BME280;50628;51.008;13.658;2023-02-18T10:59:58;99476.34;;;10.69;100.00
64292;BME280;50628;51.008;13.658;2023-02-18T11:05:11;99452.78;;;10.70;100.00
64292;BME280;50628;51.008;13.658;2023-02-18T11:10:18;99449.72;;;11.05;100.00
64292;BME280;50628;51.008;13.658;2023-02-18T11:15:26;99437.13;;;11.20;100.00
64292;BME280;50628;51.008;13.658;2023-02-18T11:20:30;99396.00;;;11.34;100.00
64292;BME280;50628;51.008;13.658;2023-02-18T11:25:34;99382.84;;;11.64;100.00
64292;BME280;50628;51.008;13.658;2023-02-18T11:30:39;99399.00;;;11.78;100.00
64292;BME280;50628;51.008;13.658;2023-02-18T11:35:48;99395.84;;;11.84;100.00
64292;BME280;50628;51.008;13.658;2023-02-18T11:40:53;99381.47;;;11.89;100.00
64292;BME280;50628;51.008;13.658;2023-02-18T11:46:09;99385.56;;;11.92;100.00
64292;BME280;50628;51.008;13.658;2023-02-18T11:51:17;99371.28;;;11.86;100.00
64292;BME280;50628;51.008;13.658;2023-02-18T11:56:19;99364.16;;;11.69;100.00
64292;BME280;50628;51.008;13.658;2023-02-18T12:01:27;99370.53;;;11.47;100.00
64292;BME280;50628;51.008;13.658;2023-02-18T12:06:33;99370.38;;;11.29;100.00
64292;BME280;50628;51.008;13.658;2023-02-18T12:11:41;99355.03;;;11.16;100.00
64292;BME280;50628;51.008;13.658;2023-02-18T12:16:56;99369.16;;;11.04;100.00
64292;BME280;50628;51.008;13.658;2023-02-18T12:22:07;99347.75;;;11.00;100.00
64292;BME280;50628;51.008;13.658;2023-02-18T12:27:18;99344.72;;;11.05;100.00
64292;BME280;50628;51.008;13.658;2023-02-18T12:32:34;99351.06;;;11.22;100.00
64292;BME280;50628;51.008;13.658;2023-02-18T12:37:59;99345.03;;;11.21;100.00
64292;BME280;50628;51.008;13.658;2023-02-18T12:43:08;99345.00;;;11.02;100.00
64292;BME280;50628;51.008;13.658;2023-02-18T12:48:30;99372.09;;;10.70;100.00
64292;BME280;50628;51.008;13.658;2023-02-18T12:53:48;99382.28;;;10.43;100.00
64292;BME280;50628;51.008;13.658;2023-02-18T12:59:00;99364.22;;;10.20;100.00
64292;BME280;50628;51.008;13.658;2023-02-18T13:04:30;99350.72;;;10.05;100.00
64292;BME280;50628;51.008;13.658;2023-02-18T13:09:46;99358.50;;;10.26;100.00
64292;BME280;50628;51.008;13.658;2023-02-18T13:14:55;99349.69;;;10.38;100.00
64292;BME280;50628;51.008;13.658;2023-02-18T13:20:04;99331.75;;;10.45;100.00
64292;BME280;50628;51.008;13.658;2023-02-18T13:25:11;99318.09;;;10.63;100.00
64292;BME280;50628;51.008;13.658;2023-02-18T13:30:19;99332.25;;;10.79;100.00
64292;BME280;50628;51.008;13.658;2023-02-18T13:35:26;99339.63;;;10.65;100.00
64292;BME280;50628;51.008;13.658;2023-02-18T13:40:31;99313.66;;;10.34;100.00
64292;BME280;50628;51.008;13.658;2023-02-18T13:45:33;99345.88;;;10.22;100.00
64292;BME280;50628;51.008;13.658;2023-02-18T13:50:41;99347.09;;;10.17;100.00
64292;BME280;50628;51.008;13.658;2023-02-18T13:55:50;99348.31;;;10.13;100.00
64292;BME280;50628;51.008;13.658;2023-02-18T14:00:57;99349.22;;;10.03;100.00
64292;BME280;50628;51.008;13.658;2023-02-18T14:06:12;99363.88;;;10.04;100.00
64292;BME280;50628;51.008;13.658;2023-02-18T14:11:45;99341.72;;;10.09;100.00
64292;BME280;50628;51.008;13.658;2023-02-18T14:22:44;99345.09;;;10.00;100.00
64292;BME280;50628;51.008;13.658;2023-02-18T14:27:50;99362.19;;;9.93;100.00
64292;BME280;50628;51.008;13.658;2023-02-18T14:32:55;99347.69;;;9.90;100.00
64292;BME280;50628;51.008;13.658;2023-02-18T14:38:22;99326.88;;;9.90;100.00
64292;BME280;50628;51.008;13.658;2023-02-18T14:43:44;99361.56;;;10.01;100.00
64292;BME280;50628;51.008;13.658;2023-02-18T14:49:07;99360.53;;;9.92;100.00
64292;BME280;50628;51.008;13.658;2023-02-18T14:54:18;99372.75;;;10.01;100.00
64292;BME280;50628;51.008;13.658;2023-02-18T14:59:23;99369.47;;;9.99;100.00
64292;BME280;50628;51.008;13.658;2023-02-18T15:04:26;99388.41;;;9.90;100.00
64292;BME280;50628;51.008;13.658;2023-02-18T15:09:30;99406.50;;;9.70;100.00
64292;BME280;50628;51.008;13.658;2023-02-18T15:14:35;99411.81;;;9.69;100.00
64292;BME280;50628;51.008;13.658;2023-02-18T15:19:40;99397.06;;;9.69;100.00
64292;BME280;50628;51.008;13.658;2023-02-18T15:24:44;99392.28;;;9.74;100.00
64292;BME280;50628;51.008;13.658;2023-02-18T15:29:48;99401.75;;;9.96;100.00
64292;BME280;50628;51.008;13.658;2023-02-18T15:34:56;99397.03;;;10.11;100.00
64292;BME280;50628;51.008;13.658;2023-02-18T15:40:02;99406.09;;;10.17;100.00
64292;BME280;50628;51.008;13.658;2023-02-18T15:45:15;99424.19;;;10.18;100.00
64292;BME280;50628;51.008;13.658;2023-02-18T15:50:20;99423.03;;;10.32;100.00
64292;BME280;50628;51.008;13.658;2023-02-18T15:55:29;99416.47;;;10.38;100.00
64292;BME280;50628;51.008;13.658;2023-02-18T16:00:36;99429.50;;;10.38;100.00
64292;BME280;50628;51.008;13.658;2023-02-18T16:05:40;99444.59;;;10.44;100.00
64292;BME280;50628;51.008;13.658;2023-02-18T16:10:49;99410.59;;;10.36;100.00
64292;BME280;50628;51.008;13.658;2023-02-18T16:15:54;99419.09;;;10.38;100.00
64292;BME280;50628;51.008;13.658;2023-02-18T16:21:01;99416.47;;;10.28;100.00
64292;BME280;50628;51.008;13.658;2023-02-18T16:26:27;99438.66;;;10.32;100.00
64292;BME280;50628;51.008;13.658;2023-02-18T16:31:29;99453.44;;;10.32;100.00
64292;BME280;50628;51.008;13.658;2023-02-18T16:36:31;99469.16;;;10.30;100.00
64292;BME280;50628;51.008;13.658;2023-02-18T16:41:35;99458.75;;;10.30;100.00
64292;BME280;50628;51.008;13.658;2023-02-18T16:46:36;99479.72;;;10.29;100.00
64292;BME280;50628;51.008;13.658;2023-02-18T16:51:39;99479.94;;;10.26;100.00
64292;BME280;50628;51.008;13.658;2023-02-18T16:56:45;99478.41;;;10.23;100.00
64292;BME280;50628;51.008;13.658;2023-02-18T17:01:46;99491.63;;;10.31;100.00
64292;BME280;50628;51.008;13.658;2023-02-18T17:06:48;99501.78;;;10.34;100.00
64292;BME280;50628;51.008;13.658;2023-02-18T17:11:54;99497.91;;;10.29;100.00
64292;BME280;50628;51.008;13.658;2023-02-18T17:16:56;99489.06;;;10.20;100.00
64292;BME280;50628;51.008;13.658;2023-02-18T17:21:58;99493.50;;;10.08;100.00
64292;BME280;50628;51.008;13.658;2023-02-18T17:27:01;99513.09;;;9.91;100.00
64292;BME280;50628;51.008;13.658;2023-02-18T17:32:05;99515.41;;;9.73;100.00
64292;BME280;50628;51.008;13.658;2023-02-18T17:37:11;99519.41;;;9.78;100.00
64292;BME280;50628;51.008;13.658;2023-02-18T17:42:14;99529.13;;;9.75;100.00
64292;BME280;50628;51.008;13.658;2023-02-18T17:47:16;99528.72;;;9.80;100.00
64292;BME280;50628;51.008;13.658;2023-02-18T17:52:28;99533.69;;;9.83;100.00
64292;BME280;50628;51.008;13.658;2023-02-18T17:57:32;99558.81;;;9.94;100.00
64292;BME280;50628;51.008;13.658;2023-02-18T18:02:34;99546.19;;;9.89;100.00
64292;BME280;50628;51.008;13.658;2023-02-18T18:07:36;99570.47;;;10.00;100.00
64292;BME280;50628;51.008;13.658;2023-02-18T18:12:39;99569.41;;;10.02;100.00
64292;BME280;50628;51.008;13.658;2023-02-18T18:17:42;99561.94;;;10.09;100.00
64292;BME280;50628;51.008;13.658;2023-02-18T18:22:44;99580.84;;;10.11;100.00
64292;BME280;50628;51.008;13.658;2023-02-18T18:27:47;99587.00;;;10.10;100.00
64292;BME280;50628;51.008;13.658;2023-02-18T18:32:51;99593.22;;;9.86;100.00
64292;BME280;50628;51.008;13.658;2023-02-18T18:37:54;99596.44;;;9.67;100.00
64292;BME280;50628;51.008;13.658;2023-02-18T18:42:58;99605.09;;;9.57;100.00
64292;BME280;50628;51.008;13.658;2023-02-18T18:48:01;99599.78;;;9.58;100.00
64292;BME280;50628;51.008;13.658;2023-02-18T18:53:02;99595.31;;;9.60;100.00
64292;BME280;50628;51.008;13.658;2023-02-18T18:58:06;99614.88;;;9.75;100.00
64292;BME280;50628;51.008;13.658;2023-02-18T19:03:10;99600.19;;;9.86;100.00
64292;BME280;50628;51.008;13.658;2023-02-18T19:08:13;99605.25;;;9.87;100.00
64292;BME280;50628;51.008;13.658;2023-02-18T19:13:19;99616.38;;;9.89;100.00
64292;BME280;50628;51.008;13.658;2023-02-18T19:18:21;99610.34;;;9.89;100.00
64292;BME280;50628;51.008;13.658;2023-02-18T19:23:23;99610.84;;;9.83;100.00
64292;BME280;50628;51.008;13.658;2023-02-18T19:28:26;99620.41;;;9.82;100.00
64292;BME280;50628;51.008;13.658;2023-02-18T19:33:28;99621.81;;;9.75;100.00
64292;BME280;50628;51.008;13.658;2023-02-18T19:38:30;99622.56;;;9.66;100.00
64292;BME280;50628;51.008;13.658;2023-02-18T19:43:33;99621.41;;;9.59;100.00
64292;BME280;50628;51.008;13.658;2023-02-18T19:48:35;99624.50;;;9.52;100.00
64292;BME280;50628;51.008;13.658;2023-02-18T19:53:37;99635.69;;;9.53;100.00
64292;BME280;50628;51.008;13.658;2023-02-18T19:58:41;99635.44;;;9.45;100.00
64292;BME280;50628;51.008;13.658;2023-02-18T20:03:43;99646.22;;;9.40;100.00
64292;BME280;50628;51.008;13.658;2023-02-18T20:08:46;99625.06;;;9.45;100.00
64292;BME280;50628;51.008;13.658;2023-02-18T20:13:50;99643.59;;;9.51;100.00
64292;BME280;50628;51.008;13.658;2023-02-18T20:18:52;99655.06;;;9.49;100.00
64292;BME280;50628;51.008;13.658;2023-02-18T20:23:54;99653.53;;;9.46;100.00
64292;BME280;50628;51.008;13.658;2023-02-18T20:28:58;99642.41;;;9.44;100.00
64292;BME280;50628;51.008;13.658;2023-02-18T20:34:00;99654.69;;;9.42;100.00
64292;BME280;50628;51.008;13.658;2023-02-18T20:39:02;99660.34;;;9.47;100.00
64292;BME280;50628;51.008;13.658;2023-02-18T20:44:06;99658.16;;;9.43;100.00
64292;BME280;50628;51.008;13.658;2023-02-18T20:49:11;99661.81;;;9.40;100.00
64292;BME280;50628;51.008;13.658;2023-02-18T20:54:16;99679.03;;;9.41;100.00
64292;BME280;50628;51.008;13.658;2023-02-18T20:59:20;99661.44;;;9.34;100.00
64292;BME280;50628;51.008;13.658;2023-02-18T21:04:22;99668.88;;;9.38;100.00
64292;BME280;50628;51.008;13.658;2023-02-18T21:09:24;99665.09;;;9.42;100.00
64292;BME280;50628;51.008;13.658;2023-02-18T21:14:27;99657.56;;;9.28;100.00
64292;BME280;50628;51.008;13.658;2023-02-18T21:19:29;99662.03;;;9.26;100.00
64292;BME280;50628;51.008;13.658;2023-02-18T21:24:31;99672.78;;;9.32;100.00
64292;BME280;50628;51.008;13.658;2023-02-18T21:29:35;99663.09;;;9.35;100.00
64292;BME280;50628;51.008;13.658;2023-02-18T21:34:37;99662.41;;;9.32;100.00
64292;BME280;50628;51.008;13.658;2023-02-18T21:39:39;99669.59;;;9.40;100.00
64292;BME280;50628;51.008;13.658;2023-02-18T21:44:42;99656.22;;;9.45;100.00
64292;BME280;50628;51.008;13.658;2023-02-18T21:49:44;99650.94;;;9.35;100.00
64292;BME280;50628;51.008;13.658;2023-02-18T21:54:46;99650.22;;;9.33;100.00
64292;BME280;50628;51.008;13.658;2023-02-18T21:59:50;99651.88;;;9.23;100.00
64292;BME280;50628;51.008;13.658;2023-02-18T22:04:52;99651.75;;;9.24;100.00
64292;BME280;50628;51.008;13.658;2023-02-18T22:09:54;99649.88;;;9.26;100.00
64292;BME280;50628;51.008;13.658;2023-02-18T22:14:57;99649.63;;;9.29;100.00
64292;BME280;50628;51.008;13.658;2023-02-18T22:19:59;99665.94;;;9.43;100.00
64292;BME280;50628;51.008;13.658;2023-02-18T22:25:01;99664.88;;;9.45;100.00
64292;BME280;50628;51.008;13.658;2023-02-18T22:30:06;99659.09;;;9.30;100.00
64292;BME280;50628;51.008;13.658;2023-02-18T22:35:08;99661.91;;;9.27;100.00
64292;BME280;50628;51.008;13.658;2023-02-18T22:40:11;99666.38;;;9.14;100.00
64292;BME280;50628;51.008;13.658;2023-02-18T22:45:14;99646.94;;;9.20;100.00
64292;BME280;50628;51.008;13.658;2023-02-18T22:50:16;99661.06;;;9.16;100.00
64292;BME280;50628;51.008;13.658;2023-02-18T22:55:18;99662.72;;;9.17;100.00
64292;BME280;50628;51.008;13.658;2023-02-18T23:00:23;99658.47;;;9.16;100.00
64292;BME280;50628;51.008;13.658;2023-02-18T23:05:25;99662.63;;;9.18;100.00
64292;BME280;50628;51.008;13.658;2023-02-18T23:10:27;99647.84;;;9.19;100.00
64292;BME280;50628;51.008;13.658;2023-02-18T23:15:30;99660.16;;;9.28;100.00
64292;BME280;50628;51.008;13.658;2023-02-18T23:20:32;99661.78;;;9.29;100.00
64292;BME280;50628;51.008;13.658;2023-02-18T23:25:51;99664.13;;;9.32;100.00
64292;BME280;50628;51.008;13.658;2023-02-18T23:30:54;99657.19;;;9.32;100.00
64292;BME280;50628;51.008;13.658;2023-02-18T23:35:56;99655.53;;;9.31;100.00
64292;BME280;50628;51.008;13.658;2023-02-18T23:41:08;99659.44;;;9.26;100.00
64292;BME280;50628;51.008;13.658;2023-02-18T23:46:11;99646.34;;;9.27;100.00
64292;BME280;50628;51.008;13.658;2023-02-18T23:51:15;99638.88;;;9.34;100.00
64292;BME280;50628;51.008;13.658;2023-02-18T23:56:19;99632.97;;;9.32;100.00
